createdAt,value
2017-12-04T00:00:50.076Z,56.05
2017-12-04T00:03:19.278Z,45.78
2017-12-04T00:05:48.763Z,50.47
2017-12-04T00:08:18.418Z,51.72
2017-12-04T00:10:48.869Z,50.35
2017-12-04T00:13:18.195Z,57.30
2017-12-04T00:15:47.829Z,46.45
2017-12-04T00:18:17.190Z,51.88
2017-12-04T00:20:46.168Z,58.80
2017-12-04T00:23:15.603Z,49.95
2017-12-04T00:25:45.274Z,64.78
2017-12-04T00:28:15.678Z,55.33
2017-12-04T00:30:45.342Z,52.78
2017-12-04T00:33:16.195Z,54.38
2017-12-04T00:35:45.690Z,65.75
2017-12-04T00:38:15.337Z,52.42
2017-12-04T00:40:46.538Z,59.35
2017-12-04T00:43:16.206Z,70.20
2017-12-04T00:45:45.873Z,53.55
2017-12-04T00:48:15.514Z,55.72
2017-12-04T00:50:45.233Z,57.15
2017-12-04T00:53:15.008Z,61.13
2017-12-04T00:55:44.661Z,66.45
2017-12-04T00:58:14.418Z,66.00
2017-12-04T01:00:43.398Z,57.38
2017-12-04T01:03:12.658Z,61.58
2017-12-04T01:05:43.112Z,55.58
2017-12-04T01:08:12.566Z,53.97
2017-12-04T01:10:41.902Z,61.78
2017-12-04T01:13:12.315Z,66.97
2017-12-04T01:15:41.986Z,74.05
2017-12-04T01:18:11.673Z,66.35
2017-12-04T01:20:41.376Z,77.75
2017-12-04T01:23:11.776Z,67.97
2017-12-04T01:25:42.216Z,62.50
2017-12-04T01:28:12.666Z,71.05
2017-12-04T01:30:42.318Z,67.12
2017-12-04T01:33:12.032Z,73.78
2017-12-04T01:35:41.875Z,63.03
2017-12-04T01:38:12.313Z,68.70
2017-12-04T01:40:42.386Z,76.55
2017-12-04T01:43:12.106Z,75.62
2017-12-04T01:45:40.899Z,64.87
2017-12-04T01:48:10.212Z,66.72
2017-12-04T01:50:39.553Z,65.68
2017-12-04T01:53:09.247Z,62.88
2017-12-04T01:55:39.684Z,65.75
2017-12-04T01:58:09.318Z,74.87
2017-12-04T02:00:38.638Z,62.00
2017-12-04T02:03:07.784Z,70.82
2017-12-04T02:05:36.925Z,62.85
2017-12-04T02:08:06.258Z,55.35
2017-12-04T02:10:37.437Z,68.95
2017-12-04T02:13:07.078Z,58.80
2017-12-04T02:15:36.617Z,59.45
2017-12-04T02:18:07.025Z,50.55
2017-12-04T02:20:37.129Z,51.45
2017-12-04T02:23:06.125Z,47.58
2017-12-04T02:25:35.773Z,43.05
2017-12-04T02:28:05.381Z,49.47
2017-12-04T02:30:34.199Z,41.78
2017-12-04T02:33:03.173Z,47.38
2017-12-04T02:35:32.451Z,45.97
2017-12-04T02:38:01.967Z,52.28
2017-12-04T02:40:30.991Z,48.25
2017-12-04T02:43:00.109Z,42.78
2017-12-04T02:45:29.147Z,46.22
2017-12-04T02:47:59.626Z,47.75
2017-12-04T02:50:28.865Z,48.10
2017-12-04T02:52:57.696Z,44.22
2017-12-04T02:55:28.196Z,47.13
2017-12-04T02:57:57.017Z,48.30
2017-12-04T03:00:26.329Z,51.88
2017-12-04T03:02:56.036Z,51.75
2017-12-04T03:05:25.750Z,33.20
2017-12-04T03:07:55.359Z,45.05
2017-12-04T03:10:25.010Z,56.72
2017-12-04T03:12:54.815Z,52.05
2017-12-04T03:15:25.978Z,47.62
2017-12-04T03:17:56.441Z,43.70
2017-12-04T03:20:25.442Z,46.83
2017-12-04T03:22:55.379Z,44.67
2017-12-04T03:25:25.342Z,45.08
2017-12-04T03:27:55.584Z,39.17
2017-12-04T03:30:25.699Z,38.97
2017-12-04T03:32:55.042Z,41.17
2017-12-04T03:35:23.948Z,40.25
2017-12-04T03:37:53.118Z,43.17
2017-12-04T03:40:22.576Z,43.85
2017-12-04T03:42:53.540Z,49.33
2017-12-04T03:45:22.740Z,46.20
2017-12-04T03:47:52.397Z,38.53
2017-12-04T03:50:22.186Z,41.80
2017-12-04T03:52:52.036Z,42.42
2017-12-04T03:55:23.869Z,49.72
2017-12-04T03:57:53.706Z,45.38
2017-12-04T04:00:25.166Z,49.83
2017-12-04T04:02:54.856Z,45.70
2017-12-04T04:05:24.735Z,45.70
2017-12-04T04:07:54.416Z,36.45
2017-12-04T04:10:24.889Z,42.80
2017-12-04T04:12:54.547Z,39.20
2017-12-04T04:15:25.043Z,39.80
2017-12-04T04:17:54.942Z,46.15
2017-12-04T04:20:30.143Z,37.00
2017-12-04T04:23:00.356Z,42.90
2017-12-04T04:25:30.832Z,33.85
2017-12-04T04:28:00.488Z,39.78
2017-12-04T04:30:30.919Z,32.72
2017-12-04T04:33:01.675Z,31.73
2017-12-04T04:35:31.991Z,35.83
2017-12-04T04:38:02.523Z,31.70
2017-12-04T04:40:32.305Z,29.92
2017-12-04T04:43:03.670Z,25.55
2017-12-04T04:45:34.396Z,30.00
2017-12-04T04:48:03.423Z,30.70
2017-12-04T04:50:33.830Z,28.15
2017-12-04T04:53:02.873Z,25.58
2017-12-04T04:55:32.732Z,22.08
2017-12-04T04:58:04.123Z,28.30
2017-12-04T05:00:34.560Z,24.90
2017-12-04T05:03:05.194Z,24.00
2017-12-04T05:05:34.846Z,20.73
2017-12-04T05:08:05.421Z,25.52
2017-12-04T05:10:35.614Z,32.88
2017-12-04T05:13:06.510Z,32.80
2017-12-04T05:15:36.200Z,23.75
2017-12-04T05:18:06.119Z,16.60
2017-12-04T05:20:36.237Z,24.12
2017-12-04T05:23:05.986Z,26.23
2017-12-04T05:25:35.812Z,19.25
2017-12-04T05:28:05.631Z,18.33
2017-12-04T05:30:36.058Z,20.08
2017-12-04T05:33:06.494Z,27.58
2017-12-04T05:35:36.724Z,22.30
2017-12-04T05:38:06.409Z,22.05
2017-12-04T05:40:36.043Z,24.83
2017-12-04T05:43:06.600Z,22.33
2017-12-04T05:45:36.189Z,23.23
2017-12-04T05:48:05.906Z,25.35
2017-12-04T05:50:37.345Z,17.15
2017-12-04T05:53:06.882Z,13.93
2017-12-04T05:55:36.818Z,17.92
2017-12-04T05:58:06.488Z,19.50
2017-12-04T06:00:36.415Z,28.90
2017-12-04T06:03:06.850Z,22.87
2017-12-04T06:05:37.589Z,24.30
2017-12-04T06:08:07.235Z,18.12
2017-12-04T06:10:36.965Z,26.45
2017-12-04T06:13:06.639Z,22.67
2017-12-04T06:15:36.315Z,21.52
2017-12-04T06:18:05.954Z,20.00
2017-12-04T06:20:35.672Z,24.42
2017-12-04T06:23:05.127Z,13.50
2017-12-04T06:25:34.811Z,16.62
2017-12-04T06:28:05.210Z,20.02
2017-12-04T06:30:34.885Z,21.00
2017-12-04T06:33:04.346Z,23.70
2017-12-04T06:35:34.034Z,18.77
2017-12-04T06:38:03.658Z,16.52
2017-12-04T06:40:34.110Z,21.48
2017-12-04T06:43:04.501Z,14.35
2017-12-04T06:45:34.173Z,16.48
2017-12-04T06:48:03.652Z,14.68
2017-12-04T06:50:33.854Z,14.93
2017-12-04T06:53:03.551Z,15.68
2017-12-04T06:55:32.991Z,20.17
2017-12-04T06:58:03.459Z,10.30
2017-12-04T07:00:33.099Z,4.93
2017-12-04T07:03:02.586Z,22.02
2017-12-04T07:05:32.214Z,14.77
2017-12-04T07:08:01.897Z,28.83
2017-12-04T07:10:31.530Z,12.88
2017-12-04T07:13:01.199Z,14.55
2017-12-04T07:15:30.843Z,10.93
2017-12-04T07:18:00.316Z,14.27
2017-12-04T07:20:29.955Z,15.45
2017-12-04T07:22:59.655Z,15.05
2017-12-04T07:25:29.297Z,16.90
2017-12-04T07:27:59.744Z,13.98
2017-12-04T07:30:29.464Z,13.95
2017-12-04T07:33:00.588Z,11.48
2017-12-04T07:35:31.839Z,14.25
2017-12-04T07:38:01.529Z,15.88
2017-12-04T07:40:31.168Z,10.35
2017-12-04T07:43:00.832Z,8.57
2017-12-04T07:45:30.477Z,14.57
2017-12-04T07:48:00.158Z,14.80
2017-12-04T07:50:30.630Z,15.70
2017-12-04T07:53:00.082Z,12.85
2017-12-04T07:55:30.558Z,15.73
2017-12-04T07:58:00.229Z,11.93
2017-12-04T08:00:29.894Z,10.70
2017-12-04T08:02:59.409Z,11.02
2017-12-04T08:05:28.521Z,12.10
2017-12-04T08:07:58.761Z,11.48
2017-12-04T08:10:29.245Z,12.82
2017-12-04T08:12:58.878Z,11.73
2017-12-04T08:15:28.570Z,14.77
2017-12-04T08:17:58.199Z,13.80
2017-12-04T08:20:27.789Z,11.98
2017-12-04T08:22:57.223Z,9.27
2017-12-04T08:25:27.510Z,12.00
2017-12-04T08:27:57.305Z,9.20
2017-12-04T08:30:26.782Z,11.40
2017-12-04T08:32:56.464Z,9.77
2017-12-04T08:35:26.737Z,9.65
2017-12-04T08:37:56.368Z,22.42
2017-12-04T08:40:26.057Z,13.25
2017-12-04T08:42:55.689Z,12.20
2017-12-04T08:45:25.401Z,12.88
2017-12-04T08:47:55.063Z,7.72
2017-12-04T08:50:24.746Z,11.60
2017-12-04T08:52:54.399Z,10.95
2017-12-04T08:55:24.056Z,11.63
2017-12-04T08:57:53.726Z,12.63
2017-12-04T09:00:23.043Z,9.68
2017-12-04T09:02:52.471Z,12.70
2017-12-04T09:05:22.151Z,13.38
2017-12-04T09:07:51.804Z,13.40
2017-12-04T09:10:22.262Z,13.18
2017-12-04T09:12:52.133Z,12.45
2017-12-04T09:15:21.783Z,14.82
2017-12-04T09:17:51.471Z,15.65
2017-12-04T09:20:21.373Z,16.62
2017-12-04T09:22:51.822Z,9.55
2017-12-04T09:25:21.573Z,11.60
2017-12-04T09:27:50.665Z,14.80
2017-12-04T09:30:19.990Z,12.65
2017-12-04T09:32:49.599Z,9.38
2017-12-04T09:35:18.598Z,16.73
2017-12-04T09:37:48.260Z,14.93
2017-12-04T09:40:17.898Z,10.43
2017-12-04T09:42:47.210Z,9.35
2017-12-04T09:45:17.649Z,10.55
2017-12-04T09:47:47.306Z,14.93
2017-12-04T09:50:16.598Z,14.00
2017-12-04T09:52:46.290Z,18.27
2017-12-04T09:55:15.929Z,13.90
2017-12-04T09:57:45.589Z,7.12
2017-12-04T10:00:14.557Z,6.90
2017-12-04T10:02:44.107Z,3.15
2017-12-04T10:05:13.109Z,3.62
2017-12-04T10:07:42.470Z,5.32
2017-12-04T10:10:12.905Z,5.68
2017-12-04T10:12:42.560Z,7.00
2017-12-04T10:15:11.842Z,6.97
2017-12-04T10:17:41.527Z,9.13
2017-12-04T10:20:11.664Z,7.32
2017-12-04T10:22:40.668Z,7.35
2017-12-04T10:25:10.306Z,5.78
2017-12-04T10:27:39.899Z,11.93
2017-12-04T10:30:09.558Z,7.62
2017-12-04T10:32:39.229Z,8.07
2017-12-04T10:35:08.854Z,4.75
2017-12-04T10:37:39.613Z,4.30
2017-12-04T10:40:08.928Z,10.70
2017-12-04T10:42:39.795Z,3.90
2017-12-04T10:45:09.617Z,7.37
2017-12-04T10:47:39.100Z,4.05
2017-12-04T10:50:09.513Z,6.20
2017-12-04T10:52:39.882Z,12.48
2017-12-04T10:55:09.551Z,6.25
2017-12-04T10:57:39.070Z,7.95
2017-12-04T11:00:08.516Z,6.55
2017-12-04T11:02:37.628Z,5.30
2017-12-04T11:05:08.063Z,7.25
2017-12-04T11:07:38.137Z,6.57
2017-12-04T11:10:07.819Z,10.52
2017-12-04T11:12:38.277Z,7.85
2017-12-04T11:15:07.905Z,6.22
2017-12-04T11:17:37.600Z,3.83
2017-12-04T11:20:07.250Z,4.35
2017-12-04T11:22:36.539Z,6.70
2017-12-04T11:25:06.602Z,8.27
2017-12-04T11:30:12.029Z,7.22
2017-12-04T11:32:41.685Z,4.87
2017-12-04T11:35:10.999Z,9.45
2017-12-04T11:37:40.671Z,5.45
2017-12-04T11:40:10.343Z,13.00
2017-12-04T11:42:40.576Z,5.80
2017-12-04T11:45:10.674Z,8.30
2017-12-04T11:47:40.035Z,9.48
2017-12-04T11:50:09.671Z,7.05
2017-12-04T11:52:39.370Z,7.37
2017-12-04T11:55:09.005Z,4.43
2017-12-04T11:57:38.653Z,5.00
2017-12-04T12:00:08.359Z,8.05
2017-12-04T12:02:37.819Z,10.13
2017-12-04T12:05:06.791Z,10.90
2017-12-04T12:07:36.467Z,5.00
2017-12-04T12:10:05.786Z,8.27
2017-12-04T12:12:34.791Z,5.95
2017-12-04T12:15:04.127Z,8.57
2017-12-04T12:17:33.823Z,13.43
2017-12-04T12:20:03.121Z,7.47
2017-12-04T12:22:32.749Z,6.78
2017-12-04T12:25:02.426Z,9.15
2017-12-04T12:27:32.081Z,6.12
2017-12-04T12:30:02.542Z,6.87
2017-12-04T12:32:32.240Z,10.13
2017-12-04T12:35:01.898Z,16.45
2017-12-04T12:37:31.558Z,13.05
2017-12-04T12:40:01.208Z,10.10
2017-12-04T12:42:30.507Z,12.98
2017-12-04T12:45:00.222Z,14.95
2017-12-04T12:47:29.952Z,7.78
2017-12-04T12:49:59.650Z,12.15
2017-12-04T12:52:29.299Z,11.00
2017-12-04T12:54:58.979Z,12.68
2017-12-04T12:57:28.670Z,10.13
2017-12-04T12:59:58.585Z,12.73
2017-12-04T13:02:29.042Z,9.25
2017-12-04T13:04:58.706Z,7.55
2017-12-04T13:07:29.001Z,13.38
2017-12-04T13:09:59.617Z,14.23
2017-12-04T13:12:29.282Z,9.93
2017-12-04T13:14:58.954Z,13.02
2017-12-04T13:17:29.378Z,8.82
2017-12-04T13:19:59.059Z,12.45
2017-12-04T13:22:28.709Z,11.43
2017-12-04T13:24:59.181Z,9.52
2017-12-04T13:27:28.646Z,4.53
2017-12-04T13:29:58.362Z,5.18
2017-12-04T13:32:39.382Z,8.75
2017-12-04T13:35:20.151Z,8.55
2017-12-04T13:37:52.605Z,8.93
2017-12-04T13:40:27.133Z,7.53
2017-12-04T13:42:56.765Z,6.47
2017-12-04T13:45:26.277Z,15.82
2017-12-04T13:47:55.929Z,8.02
2017-12-04T13:50:25.401Z,10.75
2017-12-04T13:52:56.539Z,12.50
2017-12-04T13:55:26.070Z,9.50
2017-12-04T13:57:55.502Z,5.65
2017-12-04T14:00:25.777Z,8.75
2017-12-04T14:02:55.222Z,10.30
2017-12-04T14:05:24.916Z,10.82
2017-12-04T14:07:54.573Z,7.70
2017-12-04T14:10:24.320Z,6.90
2017-12-04T14:12:54.003Z,5.07
2017-12-04T14:15:23.646Z,6.60
2017-12-04T14:17:53.127Z,10.13
2017-12-04T14:20:22.814Z,11.88
2017-12-04T14:22:52.452Z,6.97
2017-12-04T14:25:22.897Z,9.23
2017-12-04T14:27:53.345Z,4.18
2017-12-04T14:30:22.970Z,7.43
2017-12-04T14:32:52.672Z,7.87
2017-12-04T14:35:22.310Z,6.95
2017-12-04T14:37:51.978Z,7.03
2017-12-04T14:40:21.692Z,7.30
2017-12-04T14:42:51.310Z,6.55
2017-12-04T14:45:21.070Z,7.93
2017-12-04T14:47:50.371Z,3.85
2017-12-04T14:50:19.382Z,13.00
2017-12-04T14:52:49.810Z,7.12
2017-12-04T14:55:19.546Z,7.07
2017-12-04T14:57:48.315Z,12.00
2017-12-04T15:00:17.314Z,10.90
2017-12-04T15:02:46.092Z,10.45
2017-12-04T15:05:16.225Z,12.57
2017-12-04T15:07:45.321Z,11.12
2017-12-04T15:10:14.460Z,9.48
2017-12-04T15:12:43.382Z,11.00
2017-12-04T15:15:12.686Z,6.68
2017-12-04T15:17:41.847Z,13.85
2017-12-04T15:20:10.818Z,9.93
2017-12-04T15:22:39.423Z,13.93
2017-12-04T15:25:08.217Z,11.27
2017-12-04T15:27:37.030Z,13.30
2017-12-04T15:30:06.400Z,11.35
2017-12-04T15:32:35.358Z,6.97
2017-12-04T15:35:04.364Z,5.82
2017-12-04T15:37:33.181Z,10.18
2017-12-04T15:40:02.201Z,11.10
2017-12-04T15:42:30.966Z,10.68
2017-12-04T15:44:59.767Z,9.70
2017-12-04T15:47:29.085Z,7.80
2017-12-04T15:49:58.046Z,6.93
2017-12-04T15:52:27.176Z,7.03
2017-12-04T15:54:56.802Z,12.57
2017-12-04T15:57:26.590Z,7.37
2017-12-04T15:59:55.883Z,8.27
2017-12-04T16:02:24.658Z,9.32
2017-12-04T16:04:53.683Z,17.27
2017-12-04T16:07:22.989Z,13.20
2017-12-04T16:09:51.959Z,8.77
2017-12-04T16:12:20.958Z,11.93
2017-12-04T16:14:50.585Z,13.25
2017-12-04T16:17:20.714Z,8.70
2017-12-04T16:19:51.237Z,12.05
2017-12-04T16:22:20.222Z,9.80
2017-12-04T16:24:49.893Z,7.35
2017-12-04T16:27:19.298Z,10.98
2017-12-04T16:29:48.686Z,14.20
2017-12-04T16:32:18.245Z,11.98
2017-12-04T16:34:47.417Z,11.85
2017-12-04T16:37:16.862Z,8.57
2017-12-04T16:39:46.958Z,6.85
2017-12-04T16:42:17.412Z,11.20
2017-12-04T16:44:47.678Z,6.30
2017-12-04T16:47:17.294Z,6.55
2017-12-04T16:49:46.769Z,11.63
2017-12-04T16:52:15.877Z,8.13
2017-12-04T16:54:44.641Z,7.10
2017-12-04T16:57:14.299Z,9.68
2017-12-04T16:59:43.927Z,14.75
2017-12-04T17:02:13.046Z,10.55
2017-12-04T17:04:42.979Z,7.53
2017-12-04T17:07:12.433Z,6.72
2017-12-04T17:09:42.118Z,6.18
2017-12-04T17:12:11.418Z,6.00
2017-12-04T17:14:41.052Z,8.85
2017-12-04T17:17:10.716Z,10.05
2017-12-04T17:19:40.357Z,7.40
2017-12-04T17:22:10.034Z,11.82
2017-12-04T17:24:39.673Z,9.93
2017-12-04T17:27:08.574Z,12.35
2017-12-04T17:29:38.234Z,9.13
2017-12-04T17:32:07.574Z,8.43
2017-12-04T17:34:37.657Z,11.43
2017-12-04T17:37:07.391Z,9.70
2017-12-04T17:39:36.678Z,15.65
2017-12-04T17:42:06.118Z,19.77
2017-12-04T17:44:35.794Z,17.20
2017-12-04T17:47:05.093Z,21.42
2017-12-04T17:49:34.730Z,17.45
2017-12-04T17:52:04.084Z,10.15
2017-12-04T17:54:34.146Z,10.13
2017-12-04T17:57:03.803Z,11.12
2017-12-04T17:59:34.257Z,8.30
2017-12-04T18:02:03.886Z,12.25
2017-12-04T18:04:33.546Z,9.98
2017-12-04T18:07:03.327Z,8.38
2017-12-04T18:09:33.842Z,7.40
2017-12-04T18:12:02.634Z,11.43
2017-12-04T18:14:31.630Z,10.43
2017-12-04T18:17:00.960Z,14.73
2017-12-04T18:19:29.925Z,5.95
2017-12-04T18:21:58.948Z,10.07
2017-12-04T18:24:28.559Z,40.75
2017-12-04T18:26:57.881Z,9.65
2017-12-04T18:29:27.677Z,15.57
2017-12-04T18:31:57.432Z,367.90
2017-12-04T18:34:26.417Z,74.10
2017-12-04T18:36:55.420Z,9.65
2017-12-04T18:39:24.410Z,10.55
2017-12-04T18:41:53.433Z,13.38
2017-12-04T18:44:22.438Z,12.13
2017-12-04T18:46:51.724Z,6.75
2017-12-04T18:49:20.549Z,14.55
2017-12-04T18:51:49.349Z,5.35
2017-12-04T18:54:19.430Z,7.93
2017-12-04T18:56:48.710Z,10.63
2017-12-04T18:59:17.687Z,15.57
2017-12-04T19:01:46.654Z,12.70
2017-12-04T19:04:16.425Z,9.63
2017-12-04T19:06:45.741Z,7.78
2017-12-04T19:09:14.757Z,7.78
2017-12-04T19:11:44.517Z,15.98
2017-12-04T19:14:13.485Z,9.20
2017-12-04T19:16:42.505Z,16.23
2017-12-04T19:19:11.481Z,8.70
2017-12-04T19:21:40.371Z,13.45
2017-12-04T19:24:09.510Z,11.48
2017-12-04T19:26:38.470Z,6.40
2017-12-04T19:29:08.074Z,5.32
2017-12-04T19:31:37.142Z,10.43
2017-12-04T19:34:06.870Z,13.45
2017-12-04T19:36:35.834Z,13.98
2017-12-04T19:39:05.638Z,9.65
2017-12-04T19:41:35.731Z,9.40
2017-12-04T19:44:04.875Z,13.43
2017-12-04T19:46:33.843Z,7.35
2017-12-04T19:49:02.819Z,15.80
2017-12-04T19:51:31.595Z,13.05
2017-12-04T19:54:00.615Z,12.50
2017-12-04T19:56:30.277Z,7.87
2017-12-04T19:58:59.279Z,9.88
2017-12-04T20:01:28.092Z,12.70
2017-12-04T20:03:56.886Z,13.18
2017-12-04T20:06:25.907Z,9.48
2017-12-04T20:08:55.051Z,9.85
2017-12-04T20:11:24.086Z,12.00
2017-12-04T20:13:53.171Z,6.80
2017-12-04T20:16:22.268Z,6.97
2017-12-04T20:18:51.076Z,11.15
2017-12-04T20:21:21.934Z,11.55
2017-12-04T20:23:52.019Z,8.15
2017-12-04T20:26:20.802Z,9.23
2017-12-04T20:28:49.622Z,7.30
2017-12-04T20:31:18.434Z,7.95
2017-12-04T20:33:48.153Z,14.98
2017-12-04T20:36:17.177Z,16.98
2017-12-04T20:38:46.166Z,7.25
2017-12-04T20:41:15.483Z,13.02
2017-12-04T20:43:44.482Z,17.10
2017-12-04T20:46:13.491Z,8.93
2017-12-04T20:48:42.457Z,10.38
2017-12-04T20:51:11.503Z,13.13
2017-12-04T20:53:41.222Z,9.52
2017-12-04T20:56:10.202Z,12.10
2017-12-04T20:58:39.800Z,43.85
2017-12-04T21:01:09.126Z,14.38
2017-12-04T21:03:37.714Z,11.40
2017-12-04T21:06:06.345Z,7.93
2017-12-04T21:08:47.050Z,9.95
2017-12-04T21:11:28.157Z,9.63
2017-12-04T21:14:08.741Z,11.98
2017-12-04T21:16:49.484Z,11.15
2017-12-04T21:19:19.163Z,9.70
2017-12-04T21:21:48.722Z,9.13
2017-12-04T21:24:17.687Z,9.20
2017-12-04T21:26:46.654Z,16.83
2017-12-04T21:29:16.564Z,8.80
2017-12-04T21:31:45.517Z,8.57
2017-12-04T21:34:14.533Z,14.20
2017-12-04T21:36:43.493Z,17.20
2017-12-04T21:39:12.802Z,6.37
2017-12-04T21:41:41.803Z,13.65
2017-12-04T21:44:10.772Z,11.40
2017-12-04T21:46:39.577Z,10.05
2017-12-04T21:49:08.907Z,8.23
2017-12-04T21:51:37.901Z,10.30
2017-12-04T21:54:06.701Z,11.63
2017-12-04T21:56:35.505Z,20.48
2017-12-04T21:59:05.573Z,12.60
2017-12-04T22:01:34.377Z,10.27
2017-12-04T22:04:03.185Z,19.42
2017-12-04T22:06:32.014Z,10.70
2017-12-04T22:09:01.772Z,11.25
2017-12-04T22:11:30.769Z,12.32
2017-12-04T22:13:59.578Z,15.45
2017-12-04T22:16:30.061Z,12.70
2017-12-04T22:18:59.626Z,15.52
2017-12-04T22:21:28.718Z,11.23
2017-12-04T22:23:58.033Z,11.32
2017-12-04T22:26:27.842Z,10.35
2017-12-04T22:28:56.815Z,11.77
2017-12-04T22:31:25.786Z,7.90
2017-12-04T22:33:54.799Z,15.05
2017-12-04T22:36:24.097Z,4.40
2017-12-04T22:38:53.068Z,11.27
2017-12-04T22:41:22.439Z,8.55
2017-12-04T22:43:52.181Z,9.75
2017-12-04T22:46:21.992Z,11.48
2017-12-04T22:48:51.291Z,13.48
2017-12-04T22:51:20.286Z,13.60
2017-12-04T22:53:49.218Z,9.15
2017-12-04T22:56:18.199Z,14.77
2017-12-04T22:58:47.160Z,9.60
2017-12-04T23:01:16.308Z,10.07
2017-12-04T23:03:46.090Z,6.60
2017-12-04T23:06:15.066Z,10.93
2017-12-04T23:08:44.073Z,13.02
2017-12-04T23:11:12.859Z,9.95
2017-12-04T23:13:41.978Z,11.32
2017-12-04T23:16:10.995Z,13.50
2017-12-04T23:18:39.614Z,8.40
2017-12-04T23:21:08.195Z,7.97
2017-12-04T23:23:37.205Z,13.40
2017-12-04T23:26:06.193Z,9.60
2017-12-04T23:28:35.506Z,11.88
2017-12-04T23:31:04.868Z,10.82
2017-12-04T23:33:34.763Z,7.65
2017-12-04T23:36:04.093Z,6.97
2017-12-04T23:38:34.189Z,11.38
2017-12-04T23:41:03.475Z,6.97
2017-12-04T23:43:33.160Z,11.88
2017-12-04T23:46:02.273Z,10.80
2017-12-04T23:48:31.914Z,12.37
2017-12-04T23:51:02.369Z,14.90
2017-12-04T23:53:32.057Z,15.73
2017-12-04T23:56:02.454Z,11.73
2017-12-04T23:58:32.126Z,11.95
